createdAt,value
2019-04-20T00:01:52.586Z,17.02
2019-04-20T00:04:28.729Z,12.80
2019-04-20T00:06:56.475Z,15.08
2019-04-20T00:09:31.069Z,17.50
2019-04-20T00:12:07.132Z,13.68
2019-04-20T00:14:33.790Z,10.55
2019-04-20T00:17:03.021Z,11.22
2019-04-20T00:19:40.029Z,15.85
2019-04-20T00:22:15.163Z,12.68
2019-04-20T00:24:59.393Z,16.48
2019-04-20T00:27:50.224Z,13.55
2019-04-20T00:30:15.642Z,15.15
2019-04-20T00:32:46.623Z,20.23
2019-04-20T00:35:02.199Z,12.03
2019-04-20T00:37:33.835Z,12.88
2019-04-20T00:40:05.730Z,12.80
2019-04-20T00:42:43.625Z,14.60
2019-04-20T00:45:12.867Z,13.10
2019-04-20T00:47:47.820Z,10.85
2019-04-20T00:50:29.787Z,9.70
2019-04-20T00:53:02.181Z,10.00
2019-04-20T00:55:16.996Z,16.42
2019-04-20T00:57:53.445Z,13.45
2019-04-20T01:00:39.752Z,12.95
2019-04-20T01:03:09.835Z,12.00
2019-04-20T01:05:58.195Z,13.62
2019-04-20T01:08:21.716Z,11.85
2019-04-20T01:10:55.733Z,10.65
2019-04-20T01:13:25.212Z,16.67
2019-04-20T01:16:05.036Z,20.02
2019-04-20T01:18:27.024Z,29.07
2019-04-20T01:21:04.663Z,27.60
2019-04-20T01:23:37.767Z,27.17
2019-04-20T01:26:06.074Z,19.70
2019-04-20T01:28:46.377Z,13.38
2019-04-20T01:31:17.728Z,18.35
2019-04-20T01:33:48.431Z,12.63
2019-04-20T01:36:25.441Z,11.28
2019-04-20T01:38:56.777Z,15.28
2019-04-20T01:41:12.351Z,10.58
2019-04-20T01:43:43.583Z,11.88
2019-04-20T01:46:17.114Z,11.88
2019-04-20T01:48:46.298Z,18.10
2019-04-20T01:51:21.176Z,17.57
2019-04-20T01:54:06.337Z,14.78
2019-04-20T01:56:36.120Z,14.28
2019-04-20T01:59:16.147Z,15.88
2019-04-20T02:01:37.473Z,24.18
2019-04-20T02:04:11.958Z,19.05
2019-04-20T02:06:48.095Z,22.05
2019-04-20T02:09:15.709Z,27.30
2019-04-20T02:11:47.379Z,20.40
2019-04-20T02:14:24.194Z,23.75
2019-04-20T02:16:52.752Z,20.57
2019-04-20T02:19:34.629Z,19.05
2019-04-20T02:22:02.634Z,25.35
2019-04-20T02:24:23.712Z,31.73
2019-04-20T02:26:54.065Z,35.68
2019-04-20T02:29:47.430Z,25.02
2019-04-20T02:32:23.771Z,22.93
2019-04-20T02:35:01.479Z,17.87
2019-04-20T02:40:12.392Z,21.23
2019-04-20T02:42:46.710Z,20.40
2019-04-20T02:45:18.708Z,20.20
2019-04-20T02:50:15.174Z,25.00
2019-04-20T02:53:06.175Z,19.70
2019-04-20T02:55:15.318Z,23.05
2019-04-20T02:57:55.551Z,21.40
2019-04-20T03:02:36.233Z,20.68
2019-04-20T03:05:06.934Z,27.85
2019-04-20T03:07:41.115Z,18.27
2019-04-20T03:10:10.830Z,20.02
2019-04-20T03:12:53.697Z,20.17
2019-04-20T03:15:21.784Z,22.20
2019-04-20T03:17:51.140Z,28.38
2019-04-20T03:20:27.147Z,40.10
2019-04-20T03:25:53.410Z,34.23
2019-04-20T03:28:21.926Z,32.60
2019-04-20T03:33:53.712Z,29.85
2019-04-20T03:36:07.613Z,19.77
2019-04-20T03:38:30.215Z,20.60
2019-04-20T03:40:56.494Z,21.70
2019-04-20T03:43:13.837Z,21.05
2019-04-20T03:45:51.723Z,18.57
2019-04-20T03:48:34.698Z,17.95
2019-04-20T03:51:09.029Z,18.15
2019-04-20T03:56:34.866Z,16.15
2019-04-20T03:59:01.549Z,19.45
2019-04-20T04:02:04.565Z,22.87
2019-04-20T04:04:18.685Z,58.38
2019-04-20T04:06:36.043Z,48.65
2019-04-20T04:09:12.254Z,24.07
2019-04-20T04:11:43.491Z,36.55
2019-04-20T04:14:02.999Z,30.75
2019-04-20T04:16:40.950Z,35.63
2019-04-20T04:19:14.448Z,24.37
2019-04-20T04:21:53.918Z,24.23
2019-04-20T04:24:22.861Z,20.62
2019-04-20T04:26:56.045Z,27.45
2019-04-20T04:29:39.995Z,19.02
2019-04-20T04:32:14.149Z,15.83
2019-04-20T04:34:33.791Z,26.12
2019-04-20T04:37:14.961Z,17.98
2019-04-20T04:39:47.445Z,20.30
2019-04-20T04:42:16.694Z,18.98
2019-04-20T04:44:35.401Z,23.70
2019-04-20T04:47:00.215Z,23.77
2019-04-20T04:49:34.174Z,19.17
2019-04-20T04:52:05.409Z,24.72
2019-04-20T04:54:43.521Z,22.15
2019-04-20T04:57:03.367Z,19.37
2019-04-20T04:59:34.148Z,15.78
2019-04-20T05:02:05.338Z,19.73
2019-04-20T05:05:17.752Z,16.50
2019-04-20T05:07:39.794Z,21.55
2019-04-20T05:09:59.572Z,24.65
2019-04-20T05:12:32.182Z,17.50
2019-04-20T05:15:10.086Z,20.70
2019-04-20T05:17:50.087Z,21.37
2019-04-20T05:20:23.219Z,14.03
2019-04-20T05:23:01.229Z,10.40
2019-04-20T05:25:51.974Z,11.30
2019-04-20T05:28:32.520Z,9.85
2019-04-20T05:30:57.013Z,9.08
2019-04-20T05:33:40.497Z,8.55
2019-04-20T05:36:13.882Z,9.55
2019-04-20T05:38:50.182Z,11.73
2019-04-20T05:41:16.944Z,16.12
2019-04-20T05:43:56.555Z,7.97
2019-04-20T05:46:42.239Z,9.10
2019-04-20T05:49:05.291Z,8.40
2019-04-20T05:51:35.059Z,10.88
2019-04-20T05:54:07.248Z,10.20
2019-04-20T05:56:44.442Z,12.43
2019-04-20T05:59:07.635Z,11.80
2019-04-20T06:01:45.447Z,10.93
2019-04-20T06:04:10.427Z,9.80
2019-04-20T06:06:44.379Z,11.57
2019-04-20T06:09:15.637Z,7.08
2019-04-20T06:12:06.069Z,7.85
2019-04-20T06:14:10.167Z,9.23
2019-04-20T06:17:11.150Z,6.20
2019-04-20T06:19:39.458Z,10.00
2019-04-20T06:22:21.440Z,6.87
2019-04-20T06:25:16.739Z,6.92
2019-04-20T06:27:38.172Z,8.00
2019-04-20T06:32:59.258Z,5.37
2019-04-20T06:35:45.505Z,6.37
2019-04-20T06:38:10.618Z,10.20
2019-04-20T06:43:05.479Z,9.50
2019-04-20T06:45:49.251Z,14.07
2019-04-20T06:50:41.500Z,8.23
2019-04-20T06:53:30.318Z,5.87
2019-04-20T06:55:48.657Z,8.10
2019-04-20T06:58:36.403Z,9.03
2019-04-20T07:00:56.915Z,6.78
2019-04-20T07:03:35.892Z,5.72
2019-04-20T07:06:17.834Z,15.80
2019-04-20T07:08:45.097Z,6.35
2019-04-20T07:11:05.678Z,6.28
2019-04-20T07:13:22.055Z,6.10
2019-04-20T07:16:06.065Z,2.87
2019-04-20T07:19:01.173Z,6.37
2019-04-20T07:21:57.335Z,5.50
2019-04-20T07:24:19.592Z,10.15
2019-04-20T07:26:46.378Z,6.08
2019-04-20T07:29:16.014Z,6.60
2019-04-20T07:31:45.907Z,6.30
2019-04-20T07:34:18.709Z,3.58
2019-04-20T07:37:04.039Z,15.25
2019-04-20T07:39:24.249Z,6.97
2019-04-20T07:42:04.522Z,4.00
2019-04-20T07:44:36.273Z,5.75
2019-04-20T07:47:04.432Z,7.37
2019-04-20T07:49:29.023Z,5.67
2019-04-20T07:51:43.924Z,6.15
2019-04-20T07:54:44.725Z,7.03
2019-04-20T07:57:03.877Z,7.22
2019-04-20T07:59:27.508Z,5.53
2019-04-20T08:02:16.266Z,13.05
2019-04-20T08:04:46.256Z,8.83
2019-04-20T08:07:02.116Z,9.50
2019-04-20T08:09:39.368Z,8.15
2019-04-20T08:12:25.625Z,9.95
2019-04-20T08:15:04.703Z,6.00
2019-04-20T08:17:33.602Z,3.60
2019-04-20T08:19:58.100Z,3.55
2019-04-20T08:22:34.150Z,5.30
2019-04-20T08:24:55.251Z,5.03
2019-04-20T08:27:16.320Z,6.25
2019-04-20T08:30:01.858Z,6.20
2019-04-20T08:32:58.488Z,4.55
2019-04-20T08:35:46.320Z,4.62
2019-04-20T08:38:36.879Z,7.03
2019-04-20T08:40:44.156Z,4.22
2019-04-20T08:43:20.131Z,10.05
2019-04-20T08:45:49.029Z,11.75
2019-04-20T08:48:27.492Z,12.28
2019-04-20T08:50:50.645Z,6.15
2019-04-20T08:55:44.956Z,4.87
2019-04-20T08:58:04.518Z,6.75
2019-04-20T09:00:45.693Z,10.40
2019-04-20T09:03:12.935Z,6.03
2019-04-20T09:05:48.986Z,6.40
2019-04-20T09:08:17.884Z,4.35
2019-04-20T09:11:00.013Z,5.62
2019-04-20T09:13:24.465Z,6.90
2019-04-20T09:18:28.350Z,6.12
2019-04-20T09:21:00.437Z,8.45
2019-04-20T09:23:38.173Z,4.42
2019-04-20T09:26:16.248Z,10.60
2019-04-20T09:28:39.562Z,5.10
2019-04-20T09:31:22.696Z,8.73
2019-04-20T09:34:13.104Z,6.67
2019-04-20T09:36:46.135Z,3.83
2019-04-20T09:39:27.132Z,7.60
2019-04-20T09:42:00.883Z,3.83
2019-04-20T09:44:25.653Z,5.17
2019-04-20T09:46:59.197Z,6.20
2019-04-20T09:49:38.726Z,7.17
2019-04-20T09:52:13.424Z,5.65
2019-04-20T09:54:47.644Z,9.80
2019-04-20T09:57:21.765Z,4.87
2019-04-20T09:59:49.712Z,6.80
2019-04-20T10:02:10.241Z,3.35
2019-04-20T10:04:37.567Z,4.08
2019-04-20T10:07:12.771Z,7.75
2019-04-20T10:09:43.445Z,4.15
2019-04-20T10:12:11.288Z,5.85
2019-04-20T10:14:42.452Z,13.20
2019-04-20T10:17:13.746Z,6.17
2019-04-20T10:19:45.220Z,5.55
2019-04-20T10:22:15.745Z,6.78
2019-04-20T10:24:48.682Z,7.53
2019-04-20T10:27:18.763Z,8.75
2019-04-20T10:29:49.337Z,7.05
2019-04-20T10:32:19.780Z,4.12
2019-04-20T10:34:50.636Z,6.92
2019-04-20T10:37:23.895Z,6.00
2019-04-20T10:39:54.480Z,7.95
2019-04-20T10:42:25.963Z,10.95
2019-04-20T10:44:58.644Z,6.92
2019-04-20T10:47:29.273Z,8.38
2019-04-20T10:50:00.766Z,6.92
2019-04-20T10:52:32.393Z,6.97
2019-04-20T10:55:02.875Z,7.40
2019-04-20T10:57:33.466Z,3.95
2019-04-20T11:00:08.219Z,7.58
2019-04-20T11:02:39.591Z,8.18
2019-04-20T11:05:10.786Z,7.80
2019-04-20T11:07:42.090Z,4.45
2019-04-20T11:10:19.829Z,9.48
2019-04-20T11:12:44.277Z,6.03
2019-04-20T11:15:14.651Z,10.50
2019-04-20T11:17:45.777Z,12.45
2019-04-20T11:20:17.164Z,7.53
2019-04-20T11:22:48.499Z,6.00
2019-04-20T11:25:19.836Z,9.53
2019-04-20T11:27:50.300Z,11.45
2019-04-20T11:30:20.739Z,13.48
2019-04-20T11:32:51.942Z,6.25
2019-04-20T11:35:28.075Z,11.57
2019-04-20T11:37:55.341Z,11.78
2019-04-20T11:42:55.385Z,13.95
2019-04-20T11:45:26.727Z,9.30
2019-04-20T11:47:57.818Z,9.78
2019-04-20T11:50:29.343Z,11.75
2019-04-20T11:52:59.801Z,5.83
2019-04-20T11:55:30.708Z,7.55
2019-04-20T11:58:01.737Z,5.72
2019-04-20T12:00:43.169Z,6.87
2019-04-20T12:03:21.346Z,8.40
2019-04-20T12:05:47.854Z,9.90
2019-04-20T12:08:14.633Z,7.35
2019-04-20T12:10:50.246Z,9.38
2019-04-20T12:13:16.650Z,4.80
2019-04-20T12:15:47.700Z,7.62
2019-04-20T12:18:18.009Z,6.08
2019-04-20T12:20:48.157Z,5.83
2019-04-20T12:23:18.182Z,8.68
2019-04-20T12:25:48.376Z,6.20
2019-04-20T12:28:19.759Z,6.85
2019-04-20T12:30:51.377Z,6.37
2019-04-20T12:33:22.118Z,6.22
2019-04-20T12:35:52.505Z,6.08
2019-04-20T12:38:23.148Z,13.25
2019-04-20T12:40:53.456Z,3.65
2019-04-20T12:43:23.695Z,6.12
2019-04-20T12:45:53.937Z,5.35
2019-04-20T12:48:23.999Z,4.92
2019-04-20T12:50:55.329Z,6.60
2019-04-20T12:53:26.530Z,7.85
2019-04-20T12:55:56.911Z,6.33
2019-04-20T12:58:28.331Z,5.37
2019-04-20T13:01:00.525Z,4.90
2019-04-20T13:03:31.758Z,5.72
2019-04-20T13:06:03.723Z,5.35
2019-04-20T13:11:06.626Z,6.58
2019-04-20T13:13:41.009Z,8.20
2019-04-20T13:16:12.763Z,10.65
2019-04-20T13:18:45.426Z,9.68
2019-04-20T13:21:16.750Z,6.70
2019-04-20T13:23:47.315Z,4.15
2019-04-20T13:26:17.531Z,4.97
2019-04-20T13:28:48.747Z,10.80
2019-04-20T13:31:19.918Z,5.83
2019-04-20T13:33:51.696Z,7.40
2019-04-20T13:36:22.035Z,6.67
2019-04-20T13:38:52.520Z,5.58
2019-04-20T13:41:24.010Z,3.65
2019-04-20T13:43:57.699Z,12.58
2019-04-20T13:46:27.141Z,7.00
2019-04-20T13:48:57.417Z,6.83
2019-04-20T13:51:28.721Z,15.78
2019-04-20T13:53:59.423Z,3.67
2019-04-20T13:56:30.144Z,3.05
2019-04-20T13:59:01.905Z,5.37
2019-04-20T14:01:46.642Z,4.70
2019-04-20T14:04:18.871Z,5.28
2019-04-20T14:06:51.193Z,4.08
2019-04-20T14:09:23.406Z,6.92
2019-04-20T14:11:53.907Z,5.95
2019-04-20T14:14:25.332Z,6.17
2019-04-20T14:16:56.926Z,4.95
2019-04-20T14:19:27.497Z,6.15
2019-04-20T14:21:57.565Z,6.20
2019-04-20T14:24:28.907Z,6.10
2019-04-20T14:26:59.060Z,10.45
2019-04-20T14:29:30.556Z,7.58
2019-04-20T14:32:03.574Z,9.93
2019-04-20T14:34:33.115Z,4.05
2019-04-20T14:37:04.668Z,4.92
2019-04-20T14:39:36.297Z,7.58
2019-04-20T14:42:06.770Z,3.12
2019-04-20T14:44:37.498Z,4.70
2019-04-20T14:47:07.731Z,4.25
2019-04-20T14:49:38.797Z,5.12
2019-04-20T14:52:09.216Z,6.70
2019-04-20T14:54:39.481Z,5.55
2019-04-20T14:57:09.680Z,9.43
2019-04-20T14:59:43.431Z,5.20
2019-04-20T15:02:15.494Z,10.45
2019-04-20T15:07:15.588Z,9.40
2019-04-20T15:09:46.760Z,6.20
2019-04-20T15:12:17.180Z,5.92
2019-04-20T15:14:47.372Z,4.25
2019-04-20T15:17:19.417Z,4.30
2019-04-20T15:19:57.691Z,6.50
2019-04-20T15:22:39.239Z,12.18
2019-04-20T15:25:09.940Z,5.67
2019-04-20T15:27:44.003Z,4.45
2019-04-20T15:30:12.169Z,6.28
2019-04-20T15:32:43.085Z,6.15
2019-04-20T15:35:17.405Z,5.67
2019-04-20T15:37:45.164Z,9.63
2019-04-20T15:40:15.313Z,7.70
2019-04-20T15:42:56.108Z,6.47
2019-04-20T15:45:17.221Z,8.08
2019-04-20T15:47:47.986Z,13.98
2019-04-20T15:50:18.214Z,11.93
2019-04-20T15:52:51.063Z,11.65
2019-04-20T15:55:25.490Z,21.42
2019-04-20T15:57:53.324Z,5.85
2019-04-20T16:00:24.581Z,3.75
2019-04-20T16:03:05.677Z,9.15
2019-04-20T16:05:38.592Z,5.70
2019-04-20T16:08:23.799Z,6.75
2019-04-20T16:10:55.427Z,9.43
2019-04-20T16:13:32.029Z,9.40
2019-04-20T16:15:58.067Z,11.43
2019-04-20T16:18:28.187Z,16.60
2019-04-20T16:21:07.232Z,13.72
2019-04-20T16:23:32.479Z,15.53
2019-04-20T16:26:05.811Z,11.65
2019-04-20T16:28:37.538Z,8.15
2019-04-20T16:31:10.649Z,12.75
2019-04-20T16:33:39.766Z,8.33
2019-04-20T16:36:10.306Z,12.50
2019-04-20T16:38:41.850Z,12.37
2019-04-20T16:41:14.544Z,15.95
2019-04-20T16:43:46.412Z,17.15
2019-04-20T16:46:19.887Z,19.67
2019-04-20T16:48:48.541Z,18.17
2019-04-20T16:51:19.240Z,24.12
2019-04-20T16:53:49.843Z,17.60
2019-04-20T16:56:22.279Z,18.48
2019-04-20T16:58:54.744Z,18.55
2019-04-20T17:01:25.515Z,14.90
2019-04-20T17:06:27.709Z,17.10
2019-04-20T17:08:58.758Z,15.43
2019-04-20T17:11:29.983Z,17.65
2019-04-20T17:14:02.143Z,21.77
2019-04-20T17:16:33.431Z,29.82
2019-04-20T17:19:03.853Z,28.42
2019-04-20T17:21:35.601Z,39.73
2019-04-20T17:24:07.217Z,33.85
2019-04-20T17:26:43.255Z,35.15
2019-04-20T17:29:17.867Z,31.97
2019-04-20T17:32:05.498Z,27.93
2019-04-20T17:34:46.859Z,30.45
2019-04-20T17:37:08.826Z,24.05
2019-04-20T17:40:02.872Z,44.95
2019-04-20T17:42:23.959Z,36.60
2019-04-20T17:44:52.963Z,36.63
2019-04-20T17:47:30.296Z,30.92
2019-04-20T17:50:06.551Z,41.88
2019-04-20T17:52:42.833Z,54.35
2019-04-20T17:55:01.751Z,45.60
2019-04-20T17:57:33.146Z,69.20
2019-04-20T18:00:13.764Z,55.23
2019-04-20T18:02:59.324Z,66.72
2019-04-20T18:05:46.600Z,76.07
2019-04-20T18:08:12.075Z,72.20
2019-04-20T18:10:36.410Z,87.47
2019-04-20T18:15:43.852Z,96.20
2019-04-20T18:18:28.752Z,97.97
2019-04-20T18:20:52.650Z,85.28
2019-04-20T18:23:29.335Z,89.47
2019-04-20T18:26:10.784Z,110.48
2019-04-20T18:28:44.160Z,91.55
2019-04-20T18:31:09.179Z,88.97
2019-04-20T18:33:42.498Z,109.48
2019-04-20T18:36:23.354Z,108.85
2019-04-20T18:38:54.243Z,112.92
2019-04-20T18:41:28.299Z,123.72
2019-04-20T18:43:55.409Z,107.12
2019-04-20T18:46:39.250Z,117.60
2019-04-20T18:49:10.315Z,121.35
2019-04-20T18:54:05.629Z,96.40
2019-04-20T18:56:34.181Z,88.33
2019-04-20T18:59:03.124Z,102.90
2019-04-20T19:01:37.782Z,77.80
2019-04-20T19:04:06.089Z,75.03
2019-04-20T19:06:36.290Z,78.17
2019-04-20T19:09:09.403Z,68.95
2019-04-20T19:11:43.695Z,101.10
2019-04-20T19:14:34.506Z,80.72
2019-04-20T19:17:09.029Z,93.40
2019-04-20T19:19:42.399Z,85.05
2019-04-20T19:22:10.065Z,85.85
2019-04-20T19:24:42.865Z,86.80
2019-04-20T19:27:15.724Z,88.00
2019-04-20T19:29:55.365Z,91.75
2019-04-20T19:32:30.355Z,96.20
2019-04-20T19:35:00.602Z,91.75
2019-04-20T19:37:28.548Z,93.67
2019-04-20T19:42:39.766Z,100.67
2019-04-20T19:45:27.385Z,97.37
2019-04-20T19:50:32.777Z,83.65
2019-04-20T19:52:56.182Z,88.87
2019-04-20T19:55:26.009Z,88.70
2019-04-20T20:00:11.457Z,77.22
2019-04-20T20:02:43.496Z,76.02
2019-04-20T20:05:16.331Z,76.42
2019-04-20T20:07:50.831Z,87.33
2019-04-20T20:10:22.008Z,79.77
2019-04-20T20:15:27.887Z,82.00
2019-04-20T20:18:11.026Z,94.35
2019-04-20T20:20:47.444Z,98.03
2019-04-20T20:23:00.043Z,84.87
2019-04-20T20:25:34.318Z,87.30
2019-04-20T20:28:14.561Z,83.65
2019-04-20T20:30:41.507Z,77.25
2019-04-20T20:33:23.788Z,80.30
2019-04-20T20:35:45.433Z,88.33
2019-04-20T20:38:21.548Z,96.15
2019-04-20T20:40:52.416Z,78.55
2019-04-20T20:43:22.746Z,82.47
2019-04-20T20:45:56.666Z,142.28
2019-04-20T20:48:31.372Z,146.25
2019-04-20T20:51:07.743Z,143.80
2019-04-20T20:53:36.248Z,142.62
2019-04-20T20:56:01.942Z,142.80
2019-04-20T20:58:40.664Z,142.32
2019-04-20T21:01:03.715Z,133.40
2019-04-20T21:03:31.238Z,126.10
2019-04-20T21:05:59.949Z,114.08
2019-04-20T21:08:31.488Z,80.03
2019-04-20T21:11:04.847Z,74.97
2019-04-20T21:13:39.491Z,71.82
2019-04-20T21:16:12.020Z,70.65
2019-04-20T21:18:54.695Z,59.77
2019-04-20T21:21:22.638Z,52.43
2019-04-20T21:23:48.139Z,56.77
2019-04-20T21:26:20.255Z,45.05
2019-04-20T21:28:44.175Z,57.33
2019-04-20T21:31:20.393Z,41.10
2019-04-20T21:33:47.009Z,42.67
2019-04-20T21:36:19.165Z,33.30
2019-04-20T21:38:50.029Z,36.33
2019-04-20T21:41:23.661Z,40.83
2019-04-20T21:43:52.318Z,36.98
2019-04-20T21:46:22.858Z,29.32
2019-04-20T21:49:08.142Z,27.77
2019-04-20T21:51:37.070Z,39.45
2019-04-20T21:53:58.739Z,30.70
2019-04-20T21:56:28.542Z,32.23
2019-04-20T21:59:02.465Z,35.05
2019-04-20T22:01:38.820Z,47.08
2019-04-20T22:04:02.702Z,45.88
2019-04-20T22:09:07.377Z,29.42
2019-04-20T22:11:39.989Z,42.10
2019-04-20T22:14:18.460Z,28.00
2019-04-20T22:16:49.039Z,33.50
2019-04-20T22:19:28.618Z,36.70
2019-04-20T22:22:00.584Z,35.73
2019-04-20T22:24:33.089Z,27.00
2019-04-20T22:27:03.338Z,29.55
2019-04-20T22:29:22.231Z,29.55
2019-04-20T22:31:58.973Z,27.22
2019-04-20T22:34:26.095Z,34.50
2019-04-20T22:36:56.031Z,36.88
2019-04-20T22:39:32.207Z,37.95
2019-04-20T22:42:05.639Z,42.00
2019-04-20T22:44:34.210Z,34.98
2019-04-20T22:47:05.452Z,34.08
2019-04-20T22:49:50.053Z,39.85
2019-04-20T22:52:26.567Z,25.27
2019-04-20T22:54:55.231Z,36.08
2019-04-20T22:57:28.011Z,25.88
2019-04-20T22:59:50.548Z,29.07
2019-04-20T23:02:16.458Z,33.02
2019-04-20T23:04:47.099Z,23.95
2019-04-20T23:07:17.189Z,25.57
2019-04-20T23:09:54.386Z,27.45
2019-04-20T23:12:23.154Z,28.67
2019-04-20T23:14:52.297Z,34.55
2019-04-20T23:17:29.636Z,25.57
2019-04-20T23:19:58.216Z,27.58
2019-04-20T23:22:33.853Z,30.60
2019-04-20T23:24:59.383Z,31.70
2019-04-20T23:30:05.907Z,25.55
2019-04-20T23:32:33.829Z,24.47
2019-04-20T23:35:11.880Z,32.80
2019-04-20T23:37:39.984Z,32.30
2019-04-20T23:40:13.017Z,27.67
2019-04-20T23:42:45.796Z,30.02
2019-04-20T23:45:16.930Z,31.70
2019-04-20T23:47:55.704Z,21.12
2019-04-20T23:50:44.883Z,21.90
2019-04-20T23:53:13.913Z,18.70
2019-04-20T23:55:27.746Z,23.92
2019-04-20T23:58:03.222Z,24.52
